createdAt,value
2022-11-21T00:04:32.011Z,-2.6
2022-11-21T00:09:31.746Z,-2.6
2022-11-21T00:14:32.002Z,-2.6
2022-11-21T00:19:32.022Z,-2.6
2022-11-21T00:24:32.291Z,-2.7
2022-11-21T00:29:31.614Z,-2.7
2022-11-21T00:34:32.123Z,-2.8
2022-11-21T00:39:31.474Z,-2.8
2022-11-21T00:44:31.985Z,-2.8
2022-11-21T00:49:31.932Z,-2.8
2022-11-21T00:54:31.570Z,-2.8
2022-11-21T00:59:31.763Z,-2.8
2022-11-21T01:04:31.485Z,-2.9
2022-11-21T01:09:31.955Z,-2.9
2022-11-21T01:14:31.513Z,-2.9
2022-11-21T01:19:31.985Z,-2.9
2022-11-21T01:24:32.273Z,-3
2022-11-21T01:29:31.486Z,-3
2022-11-21T01:34:31.965Z,-3.1
2022-11-21T01:39:32.243Z,-3.1
2022-11-21T01:44:31.911Z,-3.2
2022-11-21T01:49:32.318Z,-3.2
2022-11-21T01:54:32.119Z,-3.2
2022-11-21T01:59:32.329Z,-3.2
2022-11-21T02:04:31.688Z,-3.2
2022-11-21T02:09:32.265Z,-3.2
2022-11-21T02:14:31.678Z,-3.3
2022-11-21T02:19:31.754Z,-3.3
2022-11-21T02:24:31.723Z,-3.3
2022-11-21T02:29:32.128Z,-3.3
2022-11-21T02:34:32.217Z,-3.3
2022-11-21T02:39:32.337Z,-3.3
2022-11-21T02:44:31.788Z,-3.2
2022-11-21T02:49:31.567Z,-3.2
2022-11-21T02:54:31.929Z,-3.2
2022-11-21T02:59:31.635Z,-3.2
2022-11-21T03:04:31.828Z,-3.2
2022-11-21T03:09:32.496Z,-3.2
2022-11-21T03:14:32.224Z,-3.1
2022-11-21T03:19:31.774Z,-3.1
2022-11-21T03:24:32.360Z,-3.1
2022-11-21T03:29:31.491Z,-3.1
2022-11-21T03:34:32.162Z,-3.1
2022-11-21T03:39:32.153Z,-3.1
2022-11-21T03:44:31.916Z,-3.1
2022-11-21T03:49:31.876Z,-3.1
2022-11-21T03:54:32.460Z,-3
2022-11-21T03:59:32.368Z,-3
2022-11-21T04:04:32.396Z,-3
2022-11-21T04:09:32.017Z,-3
2022-11-21T04:14:31.875Z,-2.9
2022-11-21T04:19:32.120Z,-2.9
2022-11-21T04:24:32.647Z,-2.9
2022-11-21T04:29:32.051Z,-2.9
2022-11-21T04:34:32.173Z,-3
2022-11-21T04:39:32.594Z,-3
2022-11-21T04:44:32.019Z,-3
2022-11-21T04:49:32.463Z,-3
2022-11-21T04:54:32.184Z,-3.1
2022-11-21T04:59:32.481Z,-3.1
2022-11-21T05:04:32.446Z,-3.1
2022-11-21T05:09:32.096Z,-3.1
2022-11-21T05:14:32.507Z,-3.2
2022-11-21T05:19:32.095Z,-3.2
2022-11-21T05:24:32.561Z,-3.2
2022-11-21T05:29:31.944Z,-3.2
2022-11-21T05:34:32.342Z,-3.2
2022-11-21T05:39:32.171Z,-3.2
2022-11-21T05:44:32.432Z,-3.3
2022-11-21T05:49:31.801Z,-3.3
2022-11-21T05:54:32.268Z,-3.2
2022-11-21T05:59:32.342Z,-3.2
2022-11-21T06:04:31.727Z,-3.2
2022-11-21T06:09:32.108Z,-3.2
2022-11-21T06:14:31.721Z,-3.2
2022-11-21T06:19:31.960Z,-3.2
2022-11-21T06:24:31.983Z,-3.1
2022-11-21T06:29:32.237Z,-3.1
2022-11-21T06:34:32.749Z,-3.1
2022-11-21T06:39:32.030Z,-3.1
2022-11-21T06:44:32.332Z,-2.9
2022-11-21T06:49:32.607Z,-2.9
2022-11-21T06:54:32.124Z,-2.9
2022-11-21T06:59:31.606Z,-2.9
2022-11-21T07:04:32.073Z,-2.8
2022-11-21T07:09:33.786Z,-2.8
2022-11-21T07:14:32.173Z,-2.7
2022-11-21T07:19:32.394Z,-2.7
2022-11-21T07:24:31.746Z,-2.6
2022-11-21T07:29:32.021Z,-2.6
2022-11-21T07:34:32.077Z,-2.4
2022-11-21T07:39:32.418Z,-2.4
2022-11-21T07:44:32.110Z,-2.4
2022-11-21T07:49:32.508Z,-2.4
2022-11-21T07:54:32.025Z,-2.4
2022-11-21T07:59:32.313Z,-2.4
2022-11-21T08:04:32.635Z,-2.3
2022-11-21T08:09:36.005Z,-2.3
2022-11-21T08:14:31.712Z,-2.3
2022-11-21T08:19:31.941Z,-2.3
2022-11-21T08:24:32.052Z,-2.2
2022-11-21T08:29:32.371Z,-2.2
2022-11-21T08:34:31.862Z,-2.2
2022-11-21T08:39:32.194Z,-2.2
2022-11-21T08:44:32.620Z,-2.2
2022-11-21T08:49:31.967Z,-2.2
2022-11-21T08:54:31.996Z,-2
2022-11-21T08:59:32.542Z,-2
2022-11-21T09:04:32.154Z,-1.9
2022-11-21T09:09:31.977Z,-1.9
2022-11-21T09:14:32.470Z,-1.9
2022-11-21T09:19:32.287Z,-1.9
2022-11-21T09:24:32.203Z,-1.8
2022-11-21T09:29:32.618Z,-1.8
2022-11-21T09:34:31.956Z,-1.8
2022-11-21T09:39:32.599Z,-1.8
2022-11-21T09:44:32.029Z,-1.7
2022-11-21T09:49:32.349Z,-1.7
2022-11-21T09:54:32.677Z,-1.7
2022-11-21T09:59:32.060Z,-1.7
2022-11-21T10:04:32.352Z,-1.6
2022-11-21T10:09:31.911Z,-1.6
2022-11-21T10:14:32.459Z,-1.3
2022-11-21T10:19:32.719Z,-1.3
2022-11-21T10:24:32.113Z,-1.3
2022-11-21T10:29:32.596Z,-1.3
2022-11-21T10:34:32.072Z,-1.2
2022-11-21T10:39:32.635Z,-1.2
2022-11-21T10:44:31.809Z,-1.1
2022-11-21T10:49:32.543Z,-1.1
2022-11-21T10:54:31.944Z,-1.1
2022-11-21T10:59:32.604Z,-1.1
2022-11-21T11:04:41.669Z,-0.8
2022-11-21T11:09:32.057Z,-0.8
2022-11-21T11:14:32.492Z,-0.6
2022-11-21T11:19:39.788Z,-0.6
2022-11-21T11:24:32.309Z,-0.3
2022-11-21T11:29:32.726Z,-0.3
2022-11-21T11:34:32.606Z,0.2
2022-11-21T11:39:32.159Z,0.2
2022-11-21T11:44:32.498Z,0.4
2022-11-21T11:49:31.910Z,0.4
2022-11-21T11:54:32.734Z,0.4
2022-11-21T11:59:32.758Z,0.4
2022-11-21T12:04:32.283Z,0.6
2022-11-21T12:09:33.018Z,0.6
2022-11-21T12:14:32.250Z,0.7
2022-11-21T12:19:32.771Z,0.7
2022-11-21T12:24:32.278Z,0.9
2022-11-21T12:29:32.834Z,0.9
2022-11-21T12:34:32.249Z,1.1
2022-11-21T12:39:32.550Z,1.1
2022-11-21T12:44:31.909Z,1.9
2022-11-21T12:49:32.294Z,1.9
2022-11-21T12:54:32.042Z,2.6
2022-11-21T12:59:32.457Z,2.6
2022-11-21T13:04:32.773Z,2.8
2022-11-21T13:09:32.143Z,2.8
2022-11-21T13:14:32.130Z,2.8
2022-11-21T13:19:32.575Z,2.8
2022-11-21T13:24:32.837Z,2.7
2022-11-21T13:29:32.106Z,2.7
2022-11-21T13:34:32.356Z,2.6
2022-11-21T13:39:32.293Z,2.6
2022-11-21T13:44:32.627Z,2.5
2022-11-21T13:49:32.347Z,2.5
2022-11-21T13:54:32.070Z,2.5
2022-11-21T13:59:32.316Z,2.5
2022-11-21T14:04:32.783Z,2.2
2022-11-21T14:09:32.437Z,2.2
2022-11-21T14:14:32.895Z,2
2022-11-21T14:19:32.104Z,2
2022-11-21T14:24:32.714Z,2
2022-11-21T14:29:32.213Z,2
2022-11-21T14:34:32.944Z,1.9
2022-11-21T14:39:38.727Z,1.9
2022-11-21T14:44:32.907Z,1.8
2022-11-21T14:49:32.497Z,1.8
2022-11-21T14:54:32.516Z,1.6
2022-11-21T14:59:32.541Z,1.6
2022-11-21T15:04:32.604Z,1.4
2022-11-21T15:14:32.041Z,1.2
2022-11-21T15:19:33.202Z,1.2
2022-11-21T15:24:32.225Z,1.1
2022-11-21T15:29:32.909Z,1.1
2022-11-21T15:34:36.456Z,0.9
2022-11-21T15:39:32.722Z,0.9
2022-11-21T15:44:32.426Z,0.7
2022-11-21T15:49:33.571Z,0.7
2022-11-21T15:54:32.473Z,0.6
2022-11-21T15:59:32.606Z,0.6
2022-11-21T16:04:32.090Z,0.4
2022-11-21T16:09:32.489Z,0.4
2022-11-21T16:14:32.874Z,0.3
2022-11-21T16:19:32.322Z,0.3
2022-11-21T16:24:32.548Z,0.1
2022-11-21T16:29:32.711Z,0.1
2022-11-21T16:34:32.318Z,-0.1
2022-11-21T16:39:32.927Z,-0.1
2022-11-21T16:44:32.733Z,-0.2
2022-11-21T16:49:32.857Z,-0.2
2022-11-21T16:54:32.334Z,-0.3
2022-11-21T16:59:32.454Z,-0.3
2022-11-21T17:04:32.560Z,-0.4
2022-11-21T17:09:32.156Z,-0.4
2022-11-21T17:14:32.934Z,-0.6
2022-11-21T17:19:32.339Z,-0.6
2022-11-21T17:24:32.589Z,-0.6
2022-11-21T17:29:32.818Z,-0.6
2022-11-21T17:34:33.362Z,-0.7
2022-11-21T17:39:32.983Z,-0.7
2022-11-21T17:44:32.506Z,-0.7
2022-11-21T17:49:32.842Z,-0.7
2022-11-21T17:54:32.041Z,-0.8
2022-11-21T17:59:32.098Z,-0.8
2022-11-21T18:04:32.756Z,-0.9
2022-11-21T18:09:32.224Z,-0.9
2022-11-21T18:14:32.980Z,-0.9
2022-11-21T18:19:32.082Z,-0.9
2022-11-21T18:24:32.916Z,-1.1
2022-11-21T18:29:37.032Z,-1.1
2022-11-21T18:34:32.537Z,-1.1
2022-11-21T18:39:33.195Z,-1.1
2022-11-21T18:44:32.174Z,-1.2
2022-11-21T18:49:32.627Z,-1.2
2022-11-21T18:54:33.019Z,-1.3
2022-11-21T18:59:32.340Z,-1.3
2022-11-21T19:04:32.775Z,-1.4
2022-11-21T19:09:33.036Z,-1.4
2022-11-21T19:14:32.104Z,-1.4
2022-11-21T19:19:34.915Z,-1.4
2022-11-21T19:24:32.261Z,-1.5
2022-11-21T19:29:32.569Z,-1.5
2022-11-21T19:34:33.018Z,-1.6
2022-11-21T19:39:32.333Z,-1.6
2022-11-21T19:44:32.555Z,-1.6
2022-11-21T19:49:32.266Z,-1.6
2022-11-21T19:54:32.827Z,-1.6
2022-11-21T19:59:33.114Z,-1.6
2022-11-21T20:04:32.630Z,-1.6
2022-11-21T20:09:34.786Z,-1.6
2022-11-21T20:14:32.860Z,-1.6
2022-11-21T20:19:33.018Z,-1.6
2022-11-21T20:24:34.870Z,-1.6
2022-11-21T20:29:32.717Z,-1.6
2022-11-21T20:34:32.994Z,-1.6
2022-11-21T20:39:32.369Z,-1.6
2022-11-21T20:45:25.740Z,-1.7
2022-11-21T20:49:32.771Z,-1.7
2022-11-21T20:54:33.086Z,-1.7
2022-11-21T20:59:33.180Z,-1.7
2022-11-21T21:04:32.920Z,-1.8
2022-11-21T21:09:32.793Z,-1.8
2022-11-21T21:14:33.071Z,-1.8
2022-11-21T21:19:33.030Z,-1.8
2022-11-21T21:24:32.820Z,-1.8
2022-11-21T21:29:32.834Z,-1.8
2022-11-21T21:34:33.125Z,-1.8
2022-11-21T21:39:32.194Z,-1.8
2022-11-21T21:44:33.655Z,-1.8
2022-11-21T21:49:32.664Z,-1.8
2022-11-21T21:54:33.078Z,-1.8
2022-11-21T21:59:32.755Z,-1.8
2022-11-21T22:05:12.700Z,-1.9
2022-11-21T22:09:32.460Z,-1.9
2022-11-21T22:14:33.002Z,-1.9
2022-11-21T22:19:32.288Z,-1.9
2022-11-21T22:24:32.571Z,-1.9
2022-11-21T22:29:32.791Z,-1.9
2022-11-21T22:34:32.577Z,-2
2022-11-21T22:39:32.484Z,-2
2022-11-21T22:44:33.039Z,-1.9
2022-11-21T22:49:32.701Z,-1.9
2022-11-21T22:54:32.951Z,-1.8
2022-11-21T22:59:33.218Z,-1.8
2022-11-21T23:04:33.008Z,-1.8
2022-11-21T23:09:32.798Z,-1.8
2022-11-21T23:14:33.136Z,-1.7
2022-11-21T23:19:32.757Z,-1.7
2022-11-21T23:24:33.154Z,-1.7
2022-11-21T23:29:32.667Z,-1.7
2022-11-21T23:34:32.866Z,-1.6
2022-11-21T23:39:33.065Z,-1.6
2022-11-21T23:44:32.352Z,-1.5
2022-11-21T23:49:33.218Z,-1.5
2022-11-21T23:54:32.423Z,-1.5
2022-11-21T23:59:32.981Z,-1.5
